Time;durP1;ratioP1;P1;durP2;ratioP2;P2;SDS_P1;SDS_P2;PMS_P1;PMS_P2;Temp;Humidity;BMP_temperature;BMP_pressure;BME280_temperature;BME280_humidity;BME280_pressure;Samples;Min_cycle;Max_cycle;Signal;HPM_P1;HPM_P2
2023/03/27 00:00:26;;;;;;;101.43;65.63;;;;;;;16.93;75.40;98598.91;4942548;29;20066;-53
2023/03/27 00:03:16;;;;;;;101.22;66.65;;;;;;;16.80;75.56;98599.97;4943749;29;20655;-54
2023/03/27 00:06:00;;;;;;;104.07;66.07;;;;;;;16.78;75.77;98604.75;4940173;29;20138;-54
2023/03/27 00:08:51;;;;;;;103.43;64.10;;;;;;;16.75;76.18;98604.41;4940655;28;20099;-57
2023/03/27 00:11:33;;;;;;;104.78;65.75;;;;;;;16.71;76.44;98606.72;4925896;29;20043;-55
2023/03/27 00:14:22;;;;;;;98.85;63.75;;;;;;;16.72;76.27;98608.38;4927969;29;20138;-55
2023/03/27 00:17:04;;;;;;;100.72;63.92;;;;;;;16.74;77.02;98608.94;4935437;29;20051;-55
2023/03/27 00:19:53;;;;;;;94.60;59.33;;;;;;;16.71;76.32;98612.09;4943170;29;20124;-54
2023/03/27 00:22:35;;;;;;;96.10;57.25;;;;;;;16.66;76.26;98616.50;4941935;29;20730;-55
2023/03/27 00:25:25;;;;;;;85.60;57.33;;;;;;;16.58;76.79;98615.81;4930971;29;20047;-53
2023/03/27 00:28:07;;;;;;;82.68;54.90;;;;;;;16.52;77.21;98610.53;4945314;29;20138;-54
2023/03/27 00:30:56;;;;;;;86.80;55.80;;;;;;;16.54;77.86;98608.47;4926349;29;20055;-54
2023/03/27 00:33:40;;;;;;;88.00;54.90;;;;;;;16.65;77.79;98610.34;4948888;29;20043;-54
2023/03/27 00:36:30;;;;;;;78.05;51.03;;;;;;;16.58;76.61;98605.13;4944910;29;20055;-56
2023/03/27 00:39:26;;;;;;;63.80;44.47;;;;;;;16.69;75.60;98602.66;4926592;29;20043;-52
2023/03/27 00:42:02;;;;;;;68.63;42.15;;;;;;;16.76;74.89;98609.53;4943456;28;20055;-55
2023/03/27 00:44:58;;;;;;;66.00;44.10;;;;;;;16.79;74.70;98613.59;4947236;29;20066;-55
2023/03/27 00:47:40;;;;;;;54.65;40.65;;;;;;;16.93;75.97;98614.97;4939856;28;20368;-57
2023/03/27 00:50:35;;;;;;;59.75;41.75;;;;;;;16.82;75.57;98618.44;4935946;28;20230;-56
2023/03/27 00:53:27;;;;;;;56.58;38.65;;;;;;;16.75;75.32;98618.59;4941924;29;20134;-55
2023/03/27 00:56:17;;;;;;;49.65;36.90;;;;;;;16.83;75.55;98618.22;4939220;28;20043;-54
2023/03/27 00:59:13;;;;;;;50.90;34.67;;;;;;;16.93;75.43;98620.31;4945583;29;20429;-55
2023/03/27 01:01:56;;;;;;;50.08;34.53;;;;;;;16.96;75.54;98626.00;4927116;28;20051;-56
2023/03/27 01:04:46;;;;;;;48.80;33.30;;;;;;;16.94;74.68;98622.75;4940652;28;20388;-53
2023/03/27 01:07:28;;;;;;;50.83;33.00;;;;;;;16.98;75.01;98623.91;4941381;28;20115;-55
2023/03/27 01:10:24;;;;;;;46.47;33.17;;;;;;;16.97;74.08;98630.31;4928902;29;20345;-56
2023/03/27 01:13:18;;;;;;;47.10;33.22;;;;;;;16.93;74.87;98618.47;4940879;28;20062;-56
2023/03/27 01:16:16;;;;;;;49.85;32.25;;;;;;;16.93;75.01;98636.38;4935568;28;20054;-55
2023/03/27 01:19:23;;;;;;;50.40;33.38;;;;;;;16.95;75.22;98635.06;4929037;29;20054;-55
2023/03/27 01:22:39;;;;;;;46.08;33.80;;;;;;;16.91;75.38;98627.75;4934917;28;20117;-52
2023/03/27 01:25:48;;;;;;;47.95;33.08;;;;;;;17.03;75.56;98628.56;4928557;29;20554;-53
2023/03/27 01:28:43;;;;;;;51.42;33.22;;;;;;;16.98;74.55;98636.47;4958573;28;20051;-56
2023/03/27 01:31:36;;;;;;;46.40;32.50;;;;;;;17.00;74.36;98637.84;4962418;28;20058;-55
2023/03/27 01:34:41;;;;;;;54.65;33.80;;;;;;;17.12;74.72;98635.19;4945334;28;20066;-55
2023/03/27 01:38:07;;;;;;;49.55;34.33;;;;;;;17.15;74.15;98645.41;4934936;28;20047;-56
2023/03/27 01:41:15;;;;;;;48.05;33.35;;;;;;;17.25;74.23;98648.28;4928844;29;20047;-53
2023/03/27 01:44:22;;;;;;;54.05;33.42;;;;;;;17.31;74.21;98652.69;4939905;29;20626;-53
2023/03/27 01:47:40;;;;;;;51.00;32.85;;;;;;;17.37;73.94;98664.31;4952151;28;20035;-55
2023/03/27 01:50:48;;;;;;;58.35;35.97;;;;;;;17.49;73.05;98673.13;4924189;29;20053;-53
2023/03/27 01:53:46;;;;;;;49.42;33.92;;;;;;;18.11;71.30;98675.94;4945129;28;20058;-57
2023/03/27 01:56:44;;;;;;;50.97;32.63;;;;;;;18.90;69.22;98676.72;4945278;28;20047;-57
2023/03/27 01:59:52;;;;;;;41.30;31.38;;;;;;;19.64;65.95;98673.41;4923163;29;20062;-57
2023/03/27 02:03:26;;;;;;;46.00;29.77;;;;;;;20.38;63.32;98668.25;4945082;28;20475;-58
2023/03/27 02:06:35;;;;;;;36.35;26.88;;;;;;;20.93;62.88;98673.22;4923939;29;20103;-56
2023/03/27 02:09:40;;;;;;;41.75;26.23;;;;;;;22.07;58.15;98674.28;4944888;29;20047;-59
2023/03/27 02:12:23;;;;;;;40.63;26.75;;;;;;;22.62;55.83;98668.88;4938468;29;20047;-56
2023/03/27 02:15:19;;;;;;;52.28;26.65;;;;;;;23.25;54.24;98680.97;4946169;29;20061;-59
2023/03/27 02:18:08;;;;;;;46.42;26.52;;;;;;;23.68;51.59;98687.59;4922138;29;20045;-56
2023/03/27 02:20:58;;;;;;;39.00;25.10;;;;;;;24.37;51.06;98686.66;4944994;29;20053;-55
2023/03/27 02:23:42;;;;;;;41.92;24.77;;;;;;;24.71;48.12;98694.78;4945013;28;20285;-59
2023/03/27 02:26:39;;;;;;;31.85;23.63;;;;;;;24.73;48.18;98705.34;4947522;28;20122;-58
2023/03/27 02:29:49;;;;;;;26.10;20.65;;;;;;;25.33;48.56;98703.94;4944476;29;20063;-56
2023/03/27 02:32:47;;;;;;;28.65;19.02;;;;;;;25.58;45.10;98709.09;4938471;29;20122;-54
2023/03/27 02:35:33;;;;;;;34.08;19.75;;;;;;;25.62;47.11;98710.16;4928438;29;20134;-55
2023/03/27 02:38:31;;;;;;;31.27;20.60;;;;;;;25.60;45.57;98717.75;4935261;28;20147;-56
2023/03/27 02:41:32;;;;;;;27.73;19.48;;;;;;;25.97;44.84;98708.88;4922754;29;20131;-58
2023/03/27 02:44:30;;;;;;;28.40;18.83;;;;;;;25.09;47.20;98711.25;4942556;29;20049;-56
2023/03/27 02:47:28;;;;;;;26.80;19.55;;;;;;;24.96;48.60;98708.09;4924449;28;20047;-56
2023/03/27 02:51:06;;;;;;;34.75;20.30;;;;;;;24.46;49.28;98711.25;4924884;29;20480;-56
2023/03/27 02:53:54;;;;;;;48.20;21.88;;;;;;;24.05;50.39;98719.59;4921220;29;20155;-54
2023/03/27 02:56:57;;;;;;;30.02;21.23;;;;;;;24.31;51.50;98722.16;4918492;29;20119;-56
2023/03/27 02:59:56;;;;;;;28.73;20.77;;;;;;;24.30;50.74;98726.75;4925255;29;20111;-57
2023/03/27 03:02:52;;;;;;;30.38;19.88;;;;;;;23.57;51.62;98732.00;4921279;29;20067;-55
2023/03/27 03:05:36;;;;;;;26.88;19.05;;;;;;;23.45;52.63;98736.09;4913672;29;20062;-57
2023/03/27 03:08:36;;;;;;;26.67;19.02;;;;;;;23.57;53.04;98740.09;4932183;29;20142;-57
2023/03/27 03:11:13;;;;;;;28.95;18.30;;;;;;;23.88;52.87;98746.19;4927079;29;20079;-57
2023/03/27 03:14:08;;;;;;;31.23;19.88;;;;;;;23.69;51.66;98747.88;4914862;29;20554;-58
2023/03/27 03:16:44;;;;;;;23.23;18.45;;;;;;;23.35;52.12;98752.28;4926230;29;20043;-57
2023/03/27 03:19:33;;;;;;;34.08;21.15;;;;;;;23.16;55.01;98758.28;4926441;29;20055;-57
2023/03/27 03:22:22;;;;;;;28.83;20.60;;;;;;;23.09;52.99;98759.66;4925061;29;20081;-59
2023/03/27 03:25:07;;;;;;;22.45;18.40;;;;;;;22.96;53.83;98771.00;4921509;29;20051;-55
2023/03/27 03:27:59;;;;;;;34.38;18.90;;;;;;;23.48;52.53;98760.69;4935594;28;20058;-57
2023/03/27 03:30:44;;;;;;;23.88;17.95;;;;;;;23.65;51.92;98763.06;4910344;28;20618;-55
2023/03/27 03:33:35;;;;;;;29.60;19.60;;;;;;;23.28;53.72;98774.19;4921665;29;20067;-56
2023/03/27 03:36:17;;;;;;;25.90;19.30;;;;;;;23.21;53.12;98774.47;4943496;29;20065;-56
2023/03/27 03:39:06;;;;;;;25.13;19.00;;;;;;;23.32;53.80;98771.78;4924792;29;20058;-55
2023/03/27 03:41:53;;;;;;;29.52;18.70;;;;;;;23.12;54.09;98780.72;4932156;28;20468;-57
2023/03/27 03:44:42;;;;;;;25.15;18.55;;;;;;;23.06;53.88;98779.06;4949194;28;20083;-57
2023/03/27 03:47:38;;;;;;;31.45;17.58;;;;;;;23.12;53.10;98786.91;4947810;28;20063;-56
2023/03/27 03:50:29;;;;;;;27.70;17.83;;;;;;;23.37;52.82;98782.59;4941420;29;20051;-56
2023/03/27 03:53:20;;;;;;;28.27;19.92;;;;;;;23.20;53.20;98790.97;4948757;29;20468;-57
2023/03/27 03:56:02;;;;;;;25.88;19.35;;;;;;;23.22;52.79;98789.63;4932207;29;20046;-58
2023/03/27 03:58:56;;;;;;;;;;;;;;;23.68;52.20;98794.94;4950023;28;20508;-57
2023/03/27 04:01:40;;;;;;;29.83;18.63;;;;;;;23.92;51.64;98792.44;4938365;29;19933;-57
2023/03/27 04:04:35;;;;;;;25.92;20.10;;;;;;;23.76;52.06;98797.09;4935304;29;20150;-54
2023/03/27 04:07:36;;;;;;;26.33;19.83;;;;;;;23.56;52.11;98799.84;4931030;29;20088;-54
2023/03/27 04:10:46;;;;;;;34.78;22.83;;;;;;;23.66;53.20;98805.25;4943080;29;20578;-55
2023/03/27 04:13:53;;;;;;;31.77;22.65;;;;;;;23.84;51.36;98804.66;4943979;28;20054;-56
2023/03/27 04:16:41;;;;;;;30.10;25.13;;;;;;;23.57;52.34;98812.28;4945179;28;20058;-55
2023/03/27 04:19:32;;;;;;;35.58;24.02;;;;;;;23.47;52.74;98810.41;4931187;29;20110;-55
2023/03/27 04:22:22;;;;;;;36.60;26.63;;;;;;;23.36;52.60;98818.78;4930870;29;20110;-56
2023/03/27 04:25:06;;;;;;;42.77;25.60;;;;;;;23.12;52.17;98815.84;4939775;29;20103;-55
2023/03/27 04:27:56;;;;;;;37.70;24.55;;;;;;;23.26;53.23;98820.44;4943441;28;20294;-54
2023/03/27 04:30:49;;;;;;;26.23;21.77;;;;;;;23.61;52.38;98818.78;4919113;29;20147;-54
2023/03/27 04:34:01;;;;;;;38.88;25.60;;;;;;;23.89;52.72;98820.88;4935835;29;20503;-55
2023/03/27 04:37:10;;;;;;;37.47;26.48;;;;;;;23.99;52.92;98828.94;4942752;28;20051;-54
2023/03/27 04:40:19;;;;;;;28.65;22.63;;;;;;;23.89;51.07;98828.97;4926992;29;20040;-54
2023/03/27 04:43:01;;;;;;;24.05;19.08;;;;;;;24.07;49.43;98833.78;4948137;28;20043;-52
2023/03/27 04:45:50;;;;;;;26.50;20.48;;;;;;;24.42;49.55;98832.84;4941395;29;20071;-55
2023/03/27 04:48:33;;;;;;;31.17;22.15;;;;;;;24.76;47.54;98841.03;4927192;28;20055;-52
2023/03/27 04:51:33;;;;;;;33.33;19.70;;;;;;;25.24;47.66;98833.91;4943819;28;20387;-55
2023/03/27 04:54:30;;;;;;;29.27;22.08;;;;;;;25.36;46.75;98836.22;4928408;29;20067;-51
2023/03/27 04:57:06;;;;;;;31.65;23.60;;;;;;;25.19;48.20;98835.84;4942724;28;20138;-53
2023/03/27 04:59:57;;;;;;;;;;;;;;;25.68;48.52;98839.19;4945736;28;20047;-54
2023/03/27 05:02:53;;;;;;;30.58;21.05;;;;;;;25.57;46.22;98837.72;4943239;28;19934;-52
2023/03/27 05:05:58;;;;;;;19.73;15.10;;;;;;;25.87;46.92;98842.81;4928591;29;20043;-56
2023/03/27 05:08:43;;;;;;;18.17;14.45;;;;;;;25.95;46.30;98838.63;4944902;29;20043;-54
2023/03/27 05:11:37;;;;;;;23.10;13.30;;;;;;;26.04;44.35;98844.25;4912421;29;20058;-49
2023/03/27 05:14:28;;;;;;;8.55;7.10;;;;;;;26.79;44.79;98843.25;4934418;28;20066;-58
2023/03/27 05:17:11;;;;;;;13.55;8.90;;;;;;;26.97;43.55;98841.66;4935857;28;20103;-58
2023/03/27 05:20:00;;;;;;;16.05;9.02;;;;;;;27.15;42.87;98840.00;4942287;28;20039;-59
2023/03/27 05:22:43;;;;;;;12.13;9.93;;;;;;;26.96;41.21;98852.81;4936522;29;20062;-52
2023/03/27 05:25:35;;;;;;;16.75;10.43;;;;;;;26.89;45.79;98855.09;4925895;29;20054;-54
2023/03/27 05:28:25;;;;;;;12.23;9.00;;;;;;;26.95;43.31;98854.75;4943704;28;20050;-52
2023/03/27 05:31:14;;;;;;;11.25;8.77;;;;;;;26.88;41.90;98850.75;4941803;29;20054;-55
2023/03/27 05:34:27;;;;;;;8.73;6.72;;;;;;;26.55;40.69;98850.69;4947203;28;20070;-52
2023/03/27 05:37:11;;;;;;;7.13;5.72;;;;;;;26.87;40.99;98851.84;4939885;29;20058;-50
2023/03/27 05:40:20;;;;;;;8.23;5.65;;;;;;;26.49;41.82;98851.84;4935875;28;20043;-53
2023/03/27 05:43:04;;;;;;;7.53;5.90;;;;;;;27.08;42.97;98858.63;4945894;28;20130;-51
2023/03/27 05:45:53;;;;;;;9.32;6.75;;;;;;;27.12;39.69;98846.06;4919170;29;20819;-59
2023/03/27 05:48:37;;;;;;;9.15;6.13;;;;;;;27.48;41.24;98849.81;4922969;29;20039;-59
2023/03/27 05:51:34;;;;;;;7.75;5.82;;;;;;;28.10;41.32;98847.59;4912929;29;20791;-56
2023/03/27 05:54:11;;;;;;;10.05;5.55;;;;;;;27.25;36.30;98839.84;4945025;29;20078;-52
2023/03/27 05:57:05;;;;;;;10.70;5.50;;;;;;;27.58;39.77;98848.81;4932578;29;20043;-51
2023/03/27 06:00:00;;;;;;;9.32;5.65;;;;;;;27.74;38.06;98842.00;4933587;29;20044;-57
2023/03/27 06:02:48;;;;;;;11.25;6.80;;;;;;;27.52;39.33;98837.22;4939561;28;20054;-59
2023/03/27 06:05:59;;;;;;;13.73;5.95;;;;;;;27.79;41.19;98843.81;4936198;29;20060;-55
2023/03/27 06:08:43;;;;;;;16.30;6.38;;;;;;;28.38;38.84;98826.53;4927918;29;20046;-59
2023/03/27 06:11:33;;;;;;;9.50;6.90;;;;;;;28.18;39.94;98829.72;4942905;29;20055;-55
2023/03/27 06:14:15;;;;;;;12.90;5.55;;;;;;;27.79;36.05;98825.56;4941506;29;20102;-56
2023/03/27 06:17:24;;;;;;;8.52;6.03;;;;;;;27.31;39.56;98827.75;4943721;29;20051;-59
2023/03/27 06:20:11;;;;;;;10.02;6.25;;;;;;;27.29;39.71;98819.09;4926295;28;20047;-59
2023/03/27 06:23:05;;;;;;;15.57;5.82;;;;;;;27.96;41.19;98816.78;4931743;28;20055;-54
2023/03/27 06:26:01;;;;;;;8.63;4.65;;;;;;;27.94;39.29;98819.00;4942124;29;20082;-57
2023/03/27 06:28:38;;;;;;;10.90;5.00;;;;;;;27.24;34.21;98805.59;4929606;29;20043;-54
2023/03/27 06:31:34;;;;;;;8.77;4.32;;;;;;;27.59;40.67;98799.53;4926433;29;20447;-55
2023/03/27 06:34:17;;;;;;;7.45;4.72;;;;;;;27.69;40.53;98801.25;4943228;28;20066;-54
2023/03/27 06:37:35;;;;;;;6.57;5.30;;;;;;;28.17;41.55;98798.13;4929272;29;20067;-51
2023/03/27 06:40:24;;;;;;;9.30;5.63;;;;;;;28.24;37.72;98804.78;4929076;29;20050;-54
2023/03/27 06:43:16;;;;;;;7.28;5.20;;;;;;;28.10;38.63;98796.63;4944810;29;20058;-55
2023/03/27 06:46:14;;;;;;;7.57;4.40;;;;;;;28.01;39.07;98795.72;4929179;29;20130;-51
2023/03/27 06:49:37;;;;;;;17.50;6.22;;;;;;;28.30;40.55;98798.13;4946501;28;20050;-54
2023/03/27 06:52:29;;;;;;;9.45;3.92;;;;;;;27.78;34.49;98790.47;4925651;29;20051;-55
2023/03/27 06:55:39;;;;;;;12.18;4.53;;;;;;;27.91;38.83;98789.66;4942166;29;20118;-54
2023/03/27 06:58:22;;;;;;;9.60;4.28;;;;;;;27.94;36.91;98791.78;4929128;29;20110;-52
2023/03/27 07:01:13;;;;;;;14.20;5.28;;;;;;;27.20;38.53;98780.91;4925825;29;20130;-57
2023/03/27 07:04:32;;;;;;;10.75;4.30;;;;;;;27.32;38.30;98783.13;4929993;29;20047;-55
2023/03/27 07:07:33;;;;;;;8.70;4.22;;;;;;;27.39;37.73;98785.47;4928083;29;20051;-54
2023/03/27 07:10:16;;;;;;;;;;;;;;;27.68;37.74;98775.94;4928750;29;20759;-53
2023/03/27 07:13:08;;;;;;;6.65;4.38;;;;;;;27.62;37.76;98771.72;4935934;29;19953;-58
2023/03/27 07:16:03;;;;;;;9.10;4.40;;;;;;;27.70;38.54;98765.56;4926499;29;20044;-50
2023/03/27 07:18:40;;;;;;;10.38;4.10;;;;;;;27.69;40.33;98753.06;4916969;29;20511;-53
2023/03/27 07:21:30;;;;;;;8.93;3.95;;;;;;;27.72;35.08;98759.81;4919702;28;20805;-54
2023/03/27 07:24:16;;;;;;;9.02;4.35;;;;;;;27.69;38.26;98746.81;4942286;28;20058;-53
2023/03/27 07:27:11;;;;;;;10.93;4.30;;;;;;;27.90;36.85;98752.66;4927884;29;20715;-51
2023/03/27 07:29:47;;;;;;;9.93;4.45;;;;;;;27.63;36.01;98746.13;4925399;29;20056;-57
2023/03/27 07:32:47;;;;;;;6.47;3.90;;;;;;;27.61;36.55;98740.19;4945891;28;20167;-54
2023/03/27 07:35:24;;;;;;;6.13;3.60;;;;;;;27.60;35.72;98737.75;4934160;28;20093;-57
2023/03/27 07:38:33;;;;;;;8.13;3.00;;;;;;;27.65;37.17;98740.38;4935860;29;20066;-54
2023/03/27 07:41:30;;;;;;;8.13;3.03;;;;;;;27.39;32.48;98731.06;4934679;29;20050;-56
2023/03/27 07:44:28;;;;;;;6.25;3.05;;;;;;;27.68;34.61;98729.69;4927441;29;20058;-53
2023/03/27 07:47:13;;;;;;;6.80;2.25;;;;;;;27.44;30.50;98729.03;4932407;29;20342;-57
2023/03/27 07:50:05;;;;;;;8.15;2.85;;;;;;;27.44;35.54;98720.09;4937087;29;20071;-55
2023/03/27 07:52:48;;;;;;;8.15;2.90;;;;;;;27.69;37.77;98720.41;4940275;29;20061;-52
2023/03/27 07:55:45;;;;;;;10.45;3.65;;;;;;;27.60;34.36;98727.69;4938285;29;20051;-50
2023/03/27 07:58:21;;;;;;;9.65;3.55;;;;;;;27.78;36.62;98715.06;4943059;29;20085;-53
2023/03/27 08:01:10;;;;;;;15.77;3.80;;;;;;;27.86;35.33;98711.63;4924908;29;20454;-53
2023/03/27 08:03:53;;;;;;;10.82;4.10;;;;;;;27.70;38.34;98713.84;4922700;29;20047;-58
2023/03/27 08:06:45;;;;;;;7.03;4.00;;;;;;;27.46;37.38;98706.97;4933975;29;20048;-54
2023/03/27 08:09:35;;;;;;;14.43;3.75;;;;;;;27.38;38.42;98705.78;4923659;29;20828;-55
2023/03/27 08:12:18;;;;;;;9.43;3.90;;;;;;;26.88;35.32;98703.97;4934556;28;20158;-55
2023/03/27 08:15:08;;;;;;;6.82;3.40;;;;;;;26.63;35.19;98699.78;4922257;29;20134;-59
2023/03/27 08:17:55;;;;;;;6.38;3.40;;;;;;;26.93;36.62;98702.00;4943461;29;20527;-60
2023/03/27 08:20:44;;;;;;;13.75;3.65;;;;;;;26.96;37.42;98695.94;4935064;29;20063;-55
2023/03/27 08:23:29;;;;;;;8.85;2.90;;;;;;;27.10;37.11;98685.09;4940119;28;20074;-55
2023/03/27 08:26:37;;;;;;;11.75;3.38;;;;;;;27.36;37.56;98686.22;4941756;29;20066;-55
2023/03/27 08:29:19;;;;;;;11.82;4.18;;;;;;;27.38;36.55;98683.22;4925362;29;20201;-54
2023/03/27 08:32:12;;;;;;;10.43;3.90;;;;;;;27.30;36.19;98679.28;4933001;29;20126;-57
2023/03/27 08:35:08;;;;;;;8.73;3.72;;;;;;;27.32;35.40;98677.06;4925696;29;20051;-54
2023/03/27 08:37:45;;;;;;;7.85;3.95;;;;;;;26.89;35.05;98667.56;4940769;28;20468;-55
2023/03/27 08:40:42;;;;;;;;;;;;;;;27.09;36.34;98665.25;4946099;29;20055;-56
2023/03/27 08:43:43;;;;;;;9.20;3.58;;;;;;;27.13;36.79;98658.09;4924072;29;20267;-53
2023/03/27 08:46:59;;;;;;;8.75;3.30;;;;;;;26.95;34.54;98650.06;4931899;29;20051;-53
2023/03/27 08:50:09;;;;;;;19.67;5.47;;;;;;;26.65;35.06;98649.44;4906955;29;20066;-59
2023/03/27 08:53:29;;;;;;;13.93;3.17;;;;;;;27.01;36.72;98635.25;4910881;29;20062;-56
2023/03/27 08:56:16;;;;;;;12.80;3.33;;;;;;;27.19;35.43;98634.34;4906607;29;20062;-56
2023/03/27 08:59:19;;;;;;;7.97;3.20;;;;;;;27.22;33.01;98629.09;4926873;29;20047;-58
2023/03/27 09:02:15;;;;;;;11.02;3.55;;;;;;;27.16;35.22;98624.06;4920220;29;20499;-57
2023/03/27 09:05:35;;;;;;;8.30;3.40;;;;;;;27.05;35.54;98609.88;4893931;29;20044;-54
2023/03/27 09:08:22;;;;;;;5.75;2.88;;;;;;;27.09;35.52;98608.16;4885232;29;20060;-53
2023/03/27 09:11:18;;;;;;;7.30;3.85;;;;;;;27.24;34.06;98599.69;4909589;29;20412;-52
2023/03/27 09:14:04;;;;;;;16.73;3.65;;;;;;;27.11;34.16;98589.63;4912325;29;20133;-55
2023/03/27 09:17:03;;;;;;;8.85;3.75;;;;;;;27.09;34.18;98594.56;4926917;29;20053;-57
2023/03/27 09:19:45;;;;;;;13.30;4.18;;;;;;;27.10;33.26;98590.75;4922016;29;20055;-55
2023/03/27 09:22:43;;;;;;;8.15;3.20;;;;;;;26.98;34.42;98587.72;4924677;29;20048;-53
2023/03/27 09:25:54;;;;;;;17.30;3.50;;;;;;;26.85;34.48;98585.81;4915079;29;20130;-53
2023/03/27 09:29:22;;;;;;;9.00;3.42;;;;;;;26.93;35.45;98576.94;4925290;29;20070;-53
2023/03/27 09:32:22;;;;;;;12.23;4.20;;;;;;;26.93;34.47;98573.41;4910989;29;20043;-54
2023/03/27 09:35:23;;;;;;;17.00;4.32;;;;;;;26.80;34.15;98566.84;4926744;29;20680;-54
2023/03/27 09:38:02;;;;;;;13.82;4.32;;;;;;;26.65;33.92;98562.50;4905356;29;20050;-54
2023/03/27 09:41:08;;;;;;;12.30;4.70;;;;;;;26.65;32.34;98553.53;4914235;29;20059;-52
2023/03/27 09:44:05;;;;;;;5.22;3.53;;;;;;;26.87;36.16;98539.28;4910863;29;20066;-53
2023/03/27 09:47:13;;;;;;;12.07;3.60;;;;;;;27.03;36.09;98533.25;4915878;29;20103;-51
2023/03/27 09:50:29;;;;;;;10.63;3.40;;;;;;;26.87;36.11;98526.50;4933596;29;20479;-55
2023/03/27 09:53:41;;;;;;;18.17;5.30;;;;;;;26.80;33.22;98528.81;4944658;28;20047;-56
2023/03/27 09:56:28;;;;;;;11.23;5.18;;;;;;;26.88;34.51;98516.44;4916890;29;20055;-56
2023/03/27 09:59:36;;;;;;;15.50;5.60;;;;;;;26.76;34.44;98520.44;4924229;29;20060;-56
2023/03/27 10:02:30;;;;;;;10.90;5.78;;;;;;;26.62;32.92;98510.69;4945385;29;20086;-51
2023/03/27 10:05:24;;;;;;;10.13;4.38;;;;;;;26.74;37.09;98503.63;4944360;29;20074;-56
2023/03/27 10:08:51;;;;;;;11.27;4.93;;;;;;;26.76;36.97;98501.44;4945791;29;20141;-56
2023/03/27 10:11:39;;;;;;;14.02;5.30;;;;;;;26.67;35.77;98505.16;4868921;29;20550;-56
2023/03/27 10:14:41;;;;;;;;;;;;;;;26.52;34.44;98500.00;4853721;29;20630;-55
2023/03/27 10:17:44;;;;;;;13.77;6.43;;;;;;;26.47;36.49;98495.47;4925586;29;20021;-55
2023/03/27 10:20:41;;;;;;;9.40;5.10;;;;;;;26.59;35.58;98498.50;4927985;29;20051;-53
2023/03/27 10:23:38;;;;;;;9.10;5.05;;;;;;;26.67;33.89;98499.72;4936979;29;20129;-52
2023/03/27 10:26:51;;;;;;;10.45;5.13;;;;;;;26.65;35.40;98500.00;4937729;28;20083;-47
2023/03/27 10:29:43;;;;;;;8.60;5.13;;;;;;;26.77;34.60;98494.09;4927984;28;20051;-51
2023/03/27 10:32:46;;;;;;;11.30;5.10;;;;;;;26.90;35.92;98492.50;4935286;28;20082;-55
2023/03/27 10:35:56;;;;;;;20.73;6.18;;;;;;;26.93;34.97;98495.41;4941013;28;20821;-53
2023/03/27 10:38:55;;;;;;;12.65;6.60;;;;;;;26.96;34.42;98493.97;4918379;29;20413;-54
2023/03/27 10:41:56;;;;;;;13.10;5.88;;;;;;;26.80;34.13;98485.31;4918360;29;20063;-53
2023/03/27 10:44:42;;;;;;;9.25;5.20;;;;;;;26.72;34.83;98478.69;4916817;29;20047;-48
2023/03/27 10:47:38;;;;;;;14.55;6.07;;;;;;;26.85;35.15;98479.81;4936108;29;20602;-47
2023/03/27 10:50:29;;;;;;;15.30;6.30;;;;;;;26.61;34.86;98476.47;4934677;29;20089;-48
2023/03/27 10:53:31;;;;;;;13.52;6.03;;;;;;;26.76;36.00;98478.88;4943602;29;20043;-58
2023/03/27 10:56:31;;;;;;;11.45;5.55;;;;;;;26.86;35.96;98486.06;4924315;29;20125;-58
2023/03/27 10:59:34;;;;;;;16.35;6.57;;;;;;;26.73;35.12;98483.00;4927309;29;20075;-61
2023/03/27 11:03:12;;;;;;;11.68;6.63;;;;;;;26.67;35.67;98478.78;4941325;29;20145;-58
2023/03/27 11:06:12;;;;;;;13.35;6.25;;;;;;;26.68;37.00;98474.97;4924315;29;20047;-57
2023/03/27 11:09:25;;;;;;;12.20;6.32;;;;;;;26.65;36.02;98469.31;4925086;29;20063;-59
2023/03/27 11:12:19;;;;;;;17.38;7.00;;;;;;;26.66;36.78;98466.31;4928469;29;20141;-54
2023/03/27 11:15:18;;;;;;;14.73;6.47;;;;;;;26.68;36.35;98466.81;4923157;29;20048;-57
2023/03/27 11:18:29;;;;;;;;;;;;;;;26.55;36.95;98475.78;4922944;29;20831;-58
2023/03/27 11:21:20;;;;;;;;;;;;;;;26.56;37.70;98474.66;4926336;29;20407;-57
2023/03/27 11:24:17;;;;;;;14.98;7.05;;;;;;;26.43;34.94;98474.63;4924697;28;20699;-52
2023/03/27 11:27:22;;;;;;;11.38;5.85;;;;;;;26.43;37.34;98471.94;4925424;29;20483;-54
2023/03/27 11:30:24;;;;;;;17.73;6.93;;;;;;;26.39;36.96;98474.44;4933666;29;20207;-52
2023/03/27 11:33:33;;;;;;;17.52;6.65;;;;;;;26.38;37.52;98478.25;4925884;29;20060;-54
2023/03/27 11:36:47;;;;;;;15.80;7.78;;;;;;;26.32;35.74;98474.84;4947786;28;20055;-51
2023/03/27 11:39:48;;;;;;;13.70;6.75;;;;;;;26.36;37.12;98483.19;4916421;29;20047;-53
2023/03/27 11:42:41;;;;;;;15.30;6.18;;;;;;;26.40;36.76;98480.69;4908047;29;20078;-51
2023/03/27 11:45:26;;;;;;;17.00;5.15;;;;;;;26.38;36.73;98488.34;4926672;29;20051;-52
2023/03/27 11:48:38;;;;;;;13.50;4.72;;;;;;;26.34;35.42;98494.34;4935074;29;20051;-53
2023/03/27 11:51:41;;;;;;;12.75;4.40;;;;;;;26.35;36.74;98503.31;4932220;29;20165;-55
2023/03/27 11:55:05;;;;;;;10.95;4.07;;;;;;;26.31;36.58;98505.03;4942241;29;20051;-56
2023/03/27 11:58:12;;;;;;;15.45;4.57;;;;;;;26.30;37.98;98503.41;4907482;29;20066;-53
2023/03/27 12:01:18;;;;;;;6.53;3.95;;;;;;;26.21;37.33;98511.44;4937000;29;20055;-53
2023/03/27 12:04:22;;;;;;;14.95;4.53;;;;;;;26.17;37.12;98507.69;4926485;29;20050;-55
2023/03/27 12:07:18;;;;;;;9.90;4.35;;;;;;;26.17;38.46;98515.00;4938862;29;20388;-57
2023/03/27 12:10:36;;;;;;;13.68;4.28;;;;;;;26.14;38.01;98513.72;4931388;29;20106;-55
2023/03/27 12:13:52;;;;;;;13.13;4.18;;;;;;;26.11;39.30;98508.06;4929841;29;20051;-59
2023/03/27 12:16:54;;;;;;;11.73;4.72;;;;;;;26.03;39.54;98514.97;4926341;29;20468;-53
2023/03/27 12:20:04;;;;;;;13.48;3.47;;;;;;;25.91;38.50;98523.59;4927848;29;20046;-51
2023/03/27 12:23:07;;;;;;;18.60;4.43;;;;;;;25.85;38.97;98526.66;4929120;29;20066;-54
2023/03/27 12:26:42;;;;;;;13.00;4.32;;;;;;;25.78;39.48;98518.13;4908649;29;20047;-56
2023/03/27 12:29:56;;;;;;;8.32;4.18;;;;;;;25.68;39.08;98523.69;4938768;29;20043;-52
2023/03/27 12:33:03;;;;;;;16.23;4.10;;;;;;;25.58;38.95;98519.22;4945249;29;20047;-51
2023/03/27 12:36:04;;;;;;;7.32;4.15;;;;;;;25.58;39.38;98530.06;4917017;29;20051;-53
2023/03/27 12:38:42;;;;;;;9.20;3.80;;;;;;;25.53;39.80;98532.84;4948402;28;20077;-53
2023/03/27 12:41:48;;;;;;;8.88;3.67;;;;;;;25.47;39.97;98542.97;4931967;29;20043;-54
2023/03/27 12:45:04;;;;;;;11.75;3.78;;;;;;;25.45;40.39;98550.56;4930739;28;20125;-56
2023/03/27 12:48:15;;;;;;;10.13;3.97;;;;;;;25.35;40.87;98547.22;4937754;28;20051;-53
2023/03/27 12:50:51;;;;;;;11.43;3.65;;;;;;;25.28;40.71;98544.84;4946353;29;20044;-55
2023/03/27 12:53:58;;;;;;;10.32;3.58;;;;;;;25.18;40.67;98546.91;4932871;29;20058;-51
2023/03/27 12:56:42;;;;;;;8.13;3.38;;;;;;;25.14;41.37;98543.16;4949918;28;20083;-51
2023/03/27 13:00:09;;;;;;;9.70;3.60;;;;;;;24.96;41.16;98548.22;4950136;28;20633;-53
2023/03/27 13:03:03;;;;;;;9.13;3.30;;;;;;;24.87;41.65;98551.88;4930074;29;20500;-54
2023/03/27 13:06:21;;;;;;;10.07;3.70;;;;;;;24.77;42.07;98546.56;4948987;28;20422;-54
2023/03/27 13:09:18;;;;;;;8.13;3.20;;;;;;;24.67;41.23;98542.03;4927533;29;20051;-51
2023/03/27 13:12:27;;;;;;;12.40;3.50;;;;;;;24.56;41.94;98543.25;4938206;29;20047;-50
2023/03/27 13:15:37;;;;;;;9.68;3.85;;;;;;;24.51;42.28;98543.31;4929764;29;20067;-51
2023/03/27 13:18:41;;;;;;;15.68;3.72;;;;;;;24.40;42.33;98544.50;4939110;28;20146;-56
2023/03/27 13:21:51;;;;;;;11.82;3.35;;;;;;;24.29;42.68;98540.28;4911084;29;20054;-53
2023/03/27 13:24:51;;;;;;;16.30;4.20;;;;;;;24.26;42.93;98541.66;4918235;29;20751;-50
2023/03/27 13:27:55;;;;;;;16.50;4.45;;;;;;;24.19;42.66;98548.50;4929745;29;20440;-54
2023/03/27 13:30:47;;;;;;;9.07;4.30;;;;;;;24.14;42.57;98547.41;4948012;28;20050;-49
2023/03/27 13:34:40;;;;;;;10.07;4.10;;;;;;;24.10;43.17;98551.78;4949805;28;20175;-49
2023/03/27 13:37:29;;;;;;;15.25;3.97;;;;;;;24.03;44.34;98554.00;4911040;29;20059;-49
2023/03/27 13:40:35;;;;;;;12.60;3.47;;;;;;;23.94;44.17;98563.81;4946496;29;20134;-50
2023/03/27 13:43:27;;;;;;;;;;;;;;;23.91;44.61;98566.28;4930491;29;20625;-50